createdAt,value
2019-06-07T00:00:42.044Z,41.70
2019-06-07T00:03:23.872Z,41.70
2019-06-07T00:05:41.738Z,41.80
2019-06-07T00:08:17.123Z,42.00
2019-06-07T00:10:41.280Z,42.20
2019-06-07T00:13:12.128Z,42.30
2019-06-07T00:15:40.733Z,42.40
2019-06-07T00:18:11.158Z,42.30
2019-06-07T00:20:40.080Z,41.90
2019-06-07T00:23:11.373Z,42.00
2019-06-07T00:25:39.439Z,42.00
2019-06-07T00:28:08.286Z,41.90
2019-06-07T00:30:50.779Z,41.90
2019-06-07T00:33:10.060Z,41.90
2019-06-07T00:35:38.386Z,41.90
2019-06-07T00:38:07.231Z,41.90
2019-06-07T00:40:36.106Z,42.00
2019-06-07T00:43:04.909Z,42.00
2019-06-07T00:45:33.786Z,42.10
2019-06-07T00:48:02.901Z,42.00
2019-06-07T00:50:31.773Z,42.00
2019-06-07T00:53:21.627Z,41.90
2019-06-07T00:55:31.124Z,42.00
2019-06-07T00:57:59.938Z,41.90
2019-06-07T01:00:28.724Z,41.90
2019-06-07T01:02:57.555Z,41.90
2019-06-07T01:05:31.444Z,41.80
2019-06-07T01:07:56.931Z,41.90
2019-06-07T01:10:51.548Z,41.90
2019-06-07T01:12:56.279Z,41.70
2019-06-07T01:15:28.850Z,41.80
2019-06-07T01:20:26.778Z,41.80
2019-06-07T01:22:55.807Z,41.90
2019-06-07T01:25:26.296Z,41.80
2019-06-07T01:27:55.483Z,41.80
2019-06-07T01:30:26.489Z,41.90
2019-06-07T01:32:54.918Z,41.80
2019-06-07T01:35:25.483Z,41.90
2019-06-07T01:37:54.606Z,42.10
2019-06-07T01:40:27.794Z,42.00
2019-06-07T01:42:53.905Z,42.30
2019-06-07T01:45:23.643Z,42.00
2019-06-07T01:47:52.687Z,42.00
2019-06-07T01:50:24.487Z,42.00
2019-06-07T01:52:52.092Z,42.00
2019-06-07T01:55:23.606Z,42.10
2019-06-07T01:57:51.428Z,42.10
2019-06-07T02:00:22.127Z,42.20
2019-06-07T02:02:51.062Z,42.20
2019-06-07T02:05:21.533Z,42.20
2019-06-07T02:07:50.821Z,42.10
2019-06-07T02:10:23.993Z,42.10
2019-06-07T02:12:50.591Z,42.10
2019-06-07T02:15:21.699Z,42.10
2019-06-07T02:17:49.942Z,42.10
2019-06-07T02:20:20.340Z,42.20
2019-06-07T02:22:49.470Z,42.30
2019-06-07T02:27:49.128Z,42.20
2019-06-07T02:30:40.343Z,42.20
2019-06-07T02:32:48.615Z,42.30
2019-06-07T02:35:17.539Z,42.30
2019-06-07T02:37:46.383Z,42.40
2019-06-07T02:40:15.244Z,42.50
2019-06-07T02:42:44.153Z,42.40
2019-06-07T02:45:13.060Z,42.40
2019-06-07T02:47:43.281Z,42.50
2019-06-07T02:50:12.239Z,42.50
2019-06-07T02:52:41.983Z,42.50
2019-06-07T02:55:11.413Z,42.60
2019-06-07T02:57:42.165Z,42.60
2019-06-07T03:00:40.845Z,42.60
2019-06-07T03:02:42.157Z,42.60
2019-06-07T03:05:11.521Z,42.60
2019-06-07T03:07:45.043Z,42.50
2019-06-07T03:10:31.723Z,42.60
2019-06-07T03:13:00.749Z,42.60
2019-06-07T03:15:35.473Z,42.50
2019-06-07T03:18:36.389Z,42.50
2019-06-07T03:21:07.204Z,42.60
2019-06-07T03:23:36.219Z,42.90
2019-06-07T03:26:05.176Z,42.60
2019-06-07T03:28:36.082Z,42.60
2019-06-07T03:31:04.536Z,42.60
2019-06-07T03:33:41.060Z,42.60
2019-06-07T03:36:22.919Z,42.60
2019-06-07T03:38:35.247Z,42.70
2019-06-07T03:41:05.035Z,42.70
2019-06-07T03:43:36.644Z,42.80
2019-06-07T03:46:04.584Z,42.80
2019-06-07T03:48:36.366Z,42.90
2019-06-07T03:51:05.053Z,42.90
2019-06-07T03:53:36.537Z,43.00
2019-06-07T03:56:05.184Z,42.90
2019-06-07T03:58:44.432Z,42.90
2019-06-07T04:01:04.738Z,42.90
2019-06-07T04:03:43.532Z,43.00
2019-06-07T04:06:04.083Z,42.90
2019-06-07T04:08:36.441Z,42.90
2019-06-07T04:11:03.585Z,42.80
2019-06-07T04:13:34.806Z,42.80
2019-06-07T04:16:05.948Z,42.80
2019-06-07T04:18:36.479Z,42.80
2019-06-07T04:21:05.510Z,42.90
2019-06-07T04:23:37.558Z,42.80
2019-06-07T04:26:04.914Z,42.50
2019-06-07T04:29:24.823Z,42.20
2019-06-07T04:31:04.282Z,42.10
2019-06-07T04:33:37.122Z,42.10
2019-06-07T04:36:03.692Z,42.10
2019-06-07T04:38:36.190Z,42.30
2019-06-07T04:41:03.695Z,42.30
2019-06-07T04:43:33.534Z,42.50
2019-06-07T04:46:02.489Z,42.50
2019-06-07T04:48:33.260Z,42.40
2019-06-07T04:51:02.440Z,42.40
2019-06-07T04:53:37.437Z,42.40
2019-06-07T04:56:02.019Z,42.40
2019-06-07T04:58:31.490Z,42.40
2019-06-07T05:01:03.382Z,42.30
2019-06-07T05:03:35.081Z,42.30
2019-06-07T05:06:01.576Z,42.40
2019-06-07T05:08:31.958Z,42.20
2019-06-07T05:11:00.886Z,42.40
2019-06-07T05:13:31.509Z,42.30
2019-06-07T05:16:00.223Z,42.40
2019-06-07T05:18:29.701Z,42.60
2019-06-07T05:20:59.303Z,43.20
2019-06-07T05:24:03.512Z,43.90
2019-06-07T05:25:59.341Z,44.50
2019-06-07T05:28:28.232Z,45.00
2019-06-07T05:31:04.352Z,45.30
2019-06-07T05:33:27.696Z,45.20
2019-06-07T05:35:56.626Z,45.20
2019-06-07T05:38:25.411Z,44.90
2019-06-07T05:40:54.295Z,44.80
2019-06-07T05:43:27.662Z,44.80
2019-06-07T05:45:56.562Z,44.50
2019-06-07T05:48:26.878Z,44.30
2019-06-07T05:50:57.295Z,44.20
2019-06-07T05:53:26.597Z,44.20
2019-06-07T05:55:55.596Z,44.20
2019-06-07T05:58:24.465Z,44.40
2019-06-07T06:00:53.295Z,44.80
2019-06-07T06:03:22.430Z,45.10
2019-06-07T06:05:55.274Z,44.90
2019-06-07T06:08:21.729Z,44.40
2019-06-07T06:10:50.592Z,44.40
2019-06-07T06:13:19.499Z,44.40
2019-06-07T06:16:00.665Z,44.10
2019-06-07T06:18:18.983Z,44.10
2019-06-07T06:21:09.466Z,43.90
2019-06-07T06:23:18.404Z,43.70
2019-06-07T06:25:53.550Z,43.40
2019-06-07T06:28:17.886Z,43.30
2019-06-07T06:30:49.412Z,43.50
2019-06-07T06:33:33.198Z,43.40
2019-06-07T06:35:50.819Z,43.20
2019-06-07T06:38:19.118Z,43.00
2019-06-07T06:40:54.961Z,43.20
2019-06-07T06:43:18.530Z,43.40
2019-06-07T06:45:50.462Z,43.30
2019-06-07T06:48:17.943Z,43.20
2019-06-07T06:50:50.125Z,43.20
2019-06-07T06:53:17.404Z,43.20
2019-06-07T06:55:48.489Z,43.20
2019-06-07T06:58:16.799Z,43.20
2019-06-07T07:00:58.971Z,43.20
2019-06-07T07:03:54.210Z,43.40
2019-06-07T07:05:50.842Z,43.50
2019-06-07T07:08:19.432Z,43.50
2019-06-07T07:10:52.428Z,44.10
2019-06-07T07:13:19.479Z,43.50
2019-06-07T07:15:55.090Z,43.60
2019-06-07T07:18:19.377Z,43.60
2019-06-07T07:20:50.432Z,43.70
2019-06-07T07:23:19.601Z,43.20
2019-06-07T07:25:55.541Z,43.70
2019-06-07T07:28:19.180Z,43.60
2019-06-07T07:30:52.656Z,43.70
2019-06-07T07:33:19.838Z,43.80
2019-06-07T07:36:10.936Z,43.70
2019-06-07T07:38:19.172Z,43.80
2019-06-07T07:41:01.573Z,43.90
2019-06-07T07:43:18.548Z,43.70
2019-06-07T07:45:54.961Z,43.80
2019-06-07T07:48:18.714Z,43.80
2019-06-07T07:50:50.565Z,43.80
2019-06-07T07:53:18.245Z,43.80
2019-06-07T07:55:52.344Z,43.90
2019-06-07T07:58:17.860Z,43.90
2019-06-07T08:00:54.994Z,44.00
2019-06-07T08:03:17.286Z,43.90
2019-06-07T08:05:47.125Z,44.00
2019-06-07T08:08:16.800Z,43.90
2019-06-07T08:10:48.054Z,43.90
2019-06-07T08:13:25.571Z,44.00
2019-06-07T08:15:48.327Z,44.00
2019-06-07T08:18:17.469Z,43.90
2019-06-07T08:21:05.025Z,43.80
2019-06-07T08:23:18.564Z,43.70
2019-06-07T08:25:49.040Z,43.70
2019-06-07T08:28:18.154Z,43.60
2019-06-07T08:30:52.130Z,43.50
2019-06-07T08:33:26.143Z,43.40
2019-06-07T08:36:16.997Z,43.40
2019-06-07T08:38:27.412Z,43.40
2019-06-07T08:40:54.623Z,43.40
2019-06-07T08:43:21.243Z,43.40
2019-06-07T08:45:55.336Z,43.40
2019-06-07T08:48:27.753Z,43.20
2019-06-07T08:50:57.078Z,43.20
2019-06-07T08:53:22.190Z,43.20
2019-06-07T08:55:52.420Z,43.80
2019-06-07T08:58:21.572Z,44.00
2019-06-07T09:00:51.374Z,43.40
2019-06-07T09:03:21.084Z,43.40
2019-06-07T09:05:49.919Z,43.30
2019-06-07T09:08:29.787Z,43.40
2019-06-07T09:10:49.210Z,43.60
2019-06-07T09:13:18.592Z,44.30
2019-06-07T09:15:47.489Z,43.50
2019-06-07T09:18:42.314Z,43.60
2019-06-07T09:20:48.419Z,43.50
2019-06-07T09:23:17.908Z,43.40
2019-06-07T09:25:57.357Z,43.40
2019-06-07T09:28:20.039Z,44.10
2019-06-07T09:30:48.315Z,43.40
2019-06-07T09:33:17.769Z,43.50
2019-06-07T09:35:46.572Z,43.70
2019-06-07T09:38:24.723Z,43.70
2019-06-07T09:40:45.944Z,43.60
2019-06-07T09:45:45.494Z,43.90
2019-06-07T09:48:23.970Z,44.10
2019-06-07T09:50:44.938Z,44.10
2019-06-07T09:53:22.352Z,44.00
2019-06-07T09:55:44.320Z,44.10
2019-06-07T10:00:44.110Z,44.40
2019-06-07T10:03:21.421Z,44.40
2019-06-07T10:05:43.756Z,44.40
2019-06-07T10:08:54.507Z,44.40
2019-06-07T10:10:43.571Z,44.50
2019-06-07T10:13:12.800Z,44.50
2019-06-07T10:15:41.713Z,44.40
2019-06-07T10:18:11.195Z,44.50
2019-06-07T10:20:40.071Z,44.50
2019-06-07T10:23:10.134Z,44.40
2019-06-07T10:25:39.197Z,44.40
2019-06-07T10:28:08.295Z,44.30
2019-06-07T10:30:37.292Z,44.30
2019-06-07T10:33:06.889Z,44.10
2019-06-07T10:35:35.867Z,43.90
2019-06-07T10:38:04.692Z,43.70
2019-06-07T10:40:33.630Z,43.50
2019-06-07T10:43:02.985Z,43.50
2019-06-07T10:45:32.056Z,43.20
2019-06-07T10:48:01.496Z,43.00
2019-06-07T10:50:30.442Z,42.70
2019-06-07T10:52:59.228Z,42.40
2019-06-07T10:55:28.099Z,42.40
2019-06-07T10:57:56.920Z,42.40
2019-06-07T11:00:25.711Z,42.30
2019-06-07T11:02:55.400Z,42.30
2019-06-07T11:05:24.450Z,42.40
2019-06-07T11:07:53.383Z,42.50
2019-06-07T11:10:22.372Z,42.30
2019-06-07T11:12:51.140Z,42.40
2019-06-07T11:15:21.773Z,42.50
2019-06-07T11:17:50.584Z,42.50
2019-06-07T11:20:20.939Z,42.50
2019-06-07T11:22:49.802Z,42.40
2019-06-07T11:25:18.699Z,42.50
2019-06-07T11:27:47.596Z,42.50
2019-06-07T11:30:16.774Z,42.60
2019-06-07T11:32:45.554Z,42.30
2019-06-07T11:35:15.508Z,42.30
2019-06-07T11:37:44.627Z,42.20
2019-06-07T11:40:33.216Z,42.20
2019-06-07T11:42:44.348Z,42.10
2019-06-07T11:45:15.344Z,42.10
2019-06-07T11:47:44.099Z,42.00
2019-06-07T11:50:13.710Z,42.00
2019-06-07T11:52:46.182Z,41.90
2019-06-07T11:55:15.283Z,41.70
2019-06-07T11:57:44.061Z,41.50
2019-06-07T12:00:16.089Z,41.40
2019-06-07T12:02:45.245Z,41.30
2019-06-07T12:05:17.183Z,41.50
2019-06-07T12:07:44.861Z,41.40
2019-06-07T12:10:16.574Z,41.40
2019-06-07T12:12:44.461Z,41.20
2019-06-07T12:15:14.991Z,41.30
2019-06-07T12:17:44.033Z,41.40
2019-06-07T12:20:14.730Z,42.50
2019-06-07T12:22:43.403Z,43.10
2019-06-07T12:25:12.512Z,43.40
2019-06-07T12:27:42.597Z,43.60
2019-06-07T12:30:19.502Z,43.50
2019-06-07T12:32:42.125Z,42.90
2019-06-07T12:35:11.518Z,43.00
2019-06-07T12:37:44.271Z,42.70
2019-06-07T12:40:15.734Z,42.60
2019-06-07T12:42:41.923Z,42.40
2019-06-07T12:45:10.941Z,42.40
2019-06-07T12:47:39.732Z,42.40
2019-06-07T12:50:08.710Z,42.30
2019-06-07T12:52:37.688Z,42.20
2019-06-07T12:55:06.642Z,42.20
2019-06-07T12:57:35.548Z,42.20
2019-06-07T13:00:05.901Z,42.10
2019-06-07T13:02:34.852Z,42.20
2019-06-07T13:05:04.837Z,42.20
2019-06-07T13:07:33.967Z,42.10
2019-06-07T13:10:02.783Z,42.20
2019-06-07T13:12:31.615Z,42.30
2019-06-07T13:15:00.676Z,42.10
2019-06-07T13:17:29.484Z,42.10
2019-06-07T13:19:58.420Z,42.10
2019-06-07T13:22:28.478Z,41.90
2019-06-07T13:24:59.547Z,41.90
2019-06-07T13:27:33.205Z,41.80
2019-06-07T13:29:58.839Z,41.80
2019-06-07T13:32:28.134Z,41.80
2019-06-07T13:34:57.171Z,41.80
2019-06-07T13:37:25.956Z,41.90
2019-06-07T13:39:54.937Z,42.00
2019-06-07T13:42:24.751Z,42.00
2019-06-07T13:44:54.019Z,42.30
2019-06-07T13:47:23.183Z,42.30
2019-06-07T13:49:55.119Z,42.40
2019-06-07T13:52:22.705Z,42.50
2019-06-07T13:54:51.562Z,42.50
2019-06-07T13:57:20.453Z,42.60
2019-06-07T13:59:49.287Z,42.60
2019-06-07T14:02:18.534Z,42.80
2019-06-07T14:04:47.618Z,43.50
2019-06-07T14:07:16.415Z,42.90
2019-06-07T14:09:45.263Z,43.00
2019-06-07T14:12:14.111Z,43.00
2019-06-07T14:14:42.990Z,43.10
2019-06-07T14:17:12.007Z,43.30
2019-06-07T14:19:40.828Z,43.50
2019-06-07T14:22:09.859Z,43.20
2019-06-07T14:24:38.647Z,43.60
2019-06-07T14:27:07.472Z,43.80
2019-06-07T14:29:37.067Z,43.80
2019-06-07T14:32:08.421Z,43.80
2019-06-07T14:34:37.346Z,43.80
2019-06-07T14:37:07.503Z,43.90
2019-06-07T14:39:36.364Z,43.90
2019-06-07T14:42:09.748Z,43.90
2019-06-07T14:44:35.954Z,43.90
2019-06-07T14:47:04.844Z,44.00
2019-06-07T14:49:34.703Z,44.00
2019-06-07T14:52:03.929Z,44.00
2019-06-07T14:54:36.303Z,43.90
2019-06-07T14:57:03.749Z,43.90
2019-06-07T14:59:32.934Z,43.90
2019-06-07T15:02:02.273Z,43.90
2019-06-07T15:04:31.160Z,43.90
2019-06-07T15:06:59.947Z,43.90
2019-06-07T15:09:29.172Z,44.00
2019-06-07T15:11:58.132Z,44.00
2019-06-07T15:14:27.336Z,44.10
2019-06-07T15:16:56.270Z,44.10
2019-06-07T15:19:26.493Z,44.20
2019-06-07T15:21:55.566Z,44.30
2019-06-07T15:24:24.423Z,44.40
2019-06-07T15:26:53.294Z,44.60
2019-06-07T15:29:22.122Z,44.50
2019-06-07T15:31:51.046Z,44.60
2019-06-07T15:34:19.875Z,44.60
2019-06-07T15:36:48.723Z,44.60
2019-06-07T15:39:17.563Z,44.60
2019-06-07T15:41:46.420Z,44.70
2019-06-07T15:44:15.292Z,44.70
2019-06-07T15:46:44.307Z,44.70
2019-06-07T15:49:13.160Z,44.70
2019-06-07T15:51:42.025Z,44.70
2019-06-07T15:54:10.858Z,45.10
2019-06-07T15:56:41.074Z,44.60
2019-06-07T15:59:10.286Z,44.50
2019-06-07T16:01:39.539Z,44.50
2019-06-07T16:04:08.637Z,44.40
2019-06-07T16:06:38.281Z,44.40
2019-06-07T16:09:07.666Z,44.30
2019-06-07T16:11:37.074Z,44.20
2019-06-07T16:14:06.484Z,44.40
2019-06-07T16:16:36.959Z,44.50
2019-06-07T16:19:06.018Z,44.90
2019-06-07T16:21:35.273Z,44.90
2019-06-07T16:24:04.208Z,44.90
2019-06-07T16:26:34.003Z,44.90
2019-06-07T16:29:03.471Z,44.90
2019-06-07T16:31:32.340Z,45.00
2019-06-07T16:34:01.303Z,45.20
2019-06-07T16:36:30.212Z,45.10
2019-06-07T16:38:59.085Z,45.10
2019-06-07T16:41:27.861Z,45.10
2019-06-07T16:43:57.186Z,45.00
2019-06-07T16:46:26.043Z,44.90
2019-06-07T16:48:54.815Z,45.40
2019-06-07T16:51:23.722Z,44.70
2019-06-07T16:53:52.506Z,44.60
2019-06-07T16:56:21.371Z,44.50
2019-06-07T16:58:50.415Z,44.90
2019-06-07T17:01:19.269Z,44.50
2019-06-07T17:03:48.144Z,44.60
2019-06-07T17:06:17.201Z,44.50
2019-06-07T17:08:46.357Z,44.50
2019-06-07T17:11:15.238Z,44.50
2019-06-07T17:13:44.480Z,44.40
2019-06-07T17:16:13.316Z,44.40
2019-06-07T17:18:43.272Z,44.30
2019-06-07T17:21:12.302Z,44.30
2019-06-07T17:23:41.286Z,44.30
2019-06-07T17:26:10.115Z,44.40
2019-06-07T17:28:39.632Z,44.50
2019-06-07T17:31:08.678Z,44.50
2019-06-07T17:33:37.497Z,44.70
2019-06-07T17:36:12.648Z,44.60
2019-06-07T17:38:42.456Z,44.60
2019-06-07T17:41:11.814Z,44.50
2019-06-07T17:43:55.156Z,44.40
2019-06-07T17:46:11.262Z,44.40
2019-06-07T17:48:41.406Z,44.30
2019-06-07T17:51:10.482Z,44.20
2019-06-07T17:53:39.322Z,44.00
2019-06-07T17:56:08.182Z,43.80
2019-06-07T17:58:37.109Z,43.80
2019-06-07T18:01:05.994Z,43.80
2019-06-07T18:03:34.787Z,43.60
2019-06-07T18:06:03.646Z,43.60
2019-06-07T18:08:32.595Z,43.50
2019-06-07T18:11:01.468Z,43.40
2019-06-07T18:13:30.311Z,43.40
2019-06-07T18:15:59.913Z,43.20
2019-06-07T18:18:28.871Z,43.20
2019-06-07T18:20:57.704Z,43.20
2019-06-07T18:23:26.510Z,43.20
2019-06-07T18:25:55.335Z,43.10
2019-06-07T18:28:24.140Z,43.20
2019-06-07T18:30:52.999Z,43.00
2019-06-07T18:33:21.855Z,43.00
2019-06-07T18:35:51.289Z,43.00
2019-06-07T18:38:20.425Z,43.00
2019-06-07T18:40:49.276Z,42.90
2019-06-07T18:43:18.112Z,42.90
2019-06-07T18:45:47.304Z,42.80
2019-06-07T18:48:16.377Z,42.80
2019-06-07T18:50:46.419Z,42.90
2019-06-07T18:53:15.416Z,43.50
2019-06-07T18:55:44.195Z,42.80
2019-06-07T18:58:13.009Z,42.80
2019-06-07T19:00:42.019Z,42.80
2019-06-07T19:03:10.907Z,42.80
2019-06-07T19:05:39.760Z,42.90
2019-06-07T19:08:08.590Z,42.80
2019-06-07T19:10:37.643Z,43.00
2019-06-07T19:13:06.575Z,43.20
2019-06-07T19:15:35.430Z,43.20
2019-06-07T19:18:04.411Z,43.40
2019-06-07T19:20:33.351Z,43.20
2019-06-07T19:23:02.164Z,43.10
2019-06-07T19:25:30.989Z,43.10
2019-06-07T19:28:01.061Z,43.00
2019-06-07T19:30:30.018Z,42.90
2019-06-07T19:32:59.682Z,42.80
2019-06-07T19:35:28.607Z,42.80
2019-06-07T19:37:57.948Z,42.80
2019-06-07T19:40:28.179Z,42.70
2019-06-07T19:42:58.366Z,42.80
2019-06-07T19:45:30.909Z,42.80
2019-06-07T19:47:58.714Z,42.70
2019-06-07T19:50:27.634Z,42.60
2019-06-07T19:52:57.055Z,42.60
2019-06-07T19:55:26.100Z,42.70
2019-06-07T19:57:55.572Z,42.60
2019-06-07T20:00:24.647Z,42.60
2019-06-07T20:02:53.713Z,42.60
2019-06-07T20:05:22.681Z,42.50
2019-06-07T20:07:51.544Z,42.60
2019-06-07T20:10:20.375Z,42.50
2019-06-07T20:12:49.250Z,42.40
2019-06-07T20:15:28.398Z,43.30
2019-06-07T20:17:49.098Z,43.20
2019-06-07T20:20:18.023Z,42.60
2019-06-07T20:22:46.985Z,42.60
2019-06-07T20:25:15.891Z,42.60
2019-06-07T20:27:44.854Z,42.60
2019-06-07T20:30:13.629Z,42.60
2019-06-07T20:32:42.454Z,42.60
2019-06-07T20:35:11.343Z,42.50
2019-06-07T20:37:40.132Z,42.50
2019-06-07T20:40:22.449Z,42.50
2019-06-07T20:42:39.544Z,42.50
2019-06-07T20:45:08.551Z,42.40
2019-06-07T20:47:37.367Z,43.10
2019-06-07T20:50:08.477Z,42.50
2019-06-07T20:52:37.766Z,42.50
2019-06-07T20:55:07.043Z,42.50
2019-06-07T20:57:36.020Z,42.40
2019-06-07T21:00:13.672Z,42.40
2019-06-07T21:02:36.261Z,42.40
2019-06-07T21:05:05.617Z,42.50
2019-06-07T21:07:34.451Z,42.40
2019-06-07T21:10:03.733Z,42.40
2019-06-07T21:12:32.667Z,42.30
2019-06-07T21:15:06.491Z,42.30
2019-06-07T21:17:32.051Z,42.30
2019-06-07T21:20:02.800Z,42.30
2019-06-07T21:22:31.489Z,42.30
2019-06-07T21:25:00.729Z,42.30
2019-06-07T21:27:29.930Z,42.40
2019-06-07T21:29:58.774Z,42.40
2019-06-07T21:32:27.639Z,42.40
2019-06-07T21:34:56.445Z,42.30
2019-06-07T21:37:25.291Z,42.40
2019-06-07T21:39:54.103Z,42.40
2019-06-07T21:42:22.980Z,42.40
2019-06-07T21:44:51.986Z,42.30
2019-06-07T21:47:20.864Z,42.30
2019-06-07T21:49:49.674Z,42.30
2019-06-07T21:52:18.505Z,42.30
2019-06-07T21:54:47.564Z,42.30
2019-06-07T21:57:16.522Z,42.30
2019-06-07T21:59:45.414Z,42.30
2019-06-07T22:02:14.624Z,42.20
2019-06-07T22:04:43.604Z,42.30
2019-06-07T22:07:13.593Z,42.30
2019-06-07T22:09:42.675Z,42.30
2019-06-07T22:12:12.125Z,42.30
2019-06-07T22:14:41.104Z,42.40
2019-06-07T22:17:10.306Z,42.40
2019-06-07T22:19:39.306Z,42.40
2019-06-07T22:22:09.321Z,42.50
2019-06-07T22:24:38.695Z,42.40
2019-06-07T22:27:09.077Z,42.50
2019-06-07T22:29:38.154Z,42.50
2019-06-07T22:32:07.098Z,42.60
2019-06-07T22:34:36.032Z,42.60
2019-06-07T22:37:04.976Z,42.60
2019-06-07T22:39:34.050Z,42.60
2019-06-07T22:42:11.871Z,42.70
2019-06-07T22:44:40.474Z,42.80
2019-06-07T22:47:09.990Z,42.70
2019-06-07T22:49:38.984Z,42.80
2019-06-07T22:52:10.709Z,42.70
2019-06-07T22:54:38.796Z,42.80
2019-06-07T22:57:14.161Z,42.80
2019-06-07T22:59:43.327Z,42.80
2019-06-07T23:02:12.660Z,42.80
2019-06-07T23:04:41.868Z,42.80
2019-06-07T23:07:10.870Z,42.80
2019-06-07T23:09:39.791Z,42.80
2019-06-07T23:12:09.139Z,42.80
2019-06-07T23:14:38.128Z,42.70
2019-06-07T23:17:06.982Z,42.80
2019-06-07T23:19:35.764Z,42.80
2019-06-07T23:22:04.679Z,42.80
2019-06-07T23:24:33.592Z,42.80
2019-06-07T23:27:21.643Z,42.80
2019-06-07T23:29:50.458Z,42.80
2019-06-07T23:32:20.158Z,42.80
2019-06-07T23:34:50.055Z,42.80
2019-06-07T23:37:19.173Z,42.80
2019-06-07T23:40:07.310Z,42.80
2019-06-07T23:42:36.439Z,42.80
2019-06-07T23:45:05.490Z,42.80
2019-06-07T23:47:34.303Z,42.80
2019-06-07T23:50:03.306Z,42.90
2019-06-07T23:52:32.106Z,42.90
2019-06-07T23:55:00.939Z,42.90
2019-06-07T23:57:29.726Z,42.90
2019-06-07T23:59:58.548Z,43.00
